createdAt,value
2023-04-24T00:01:29.268Z,18.42
2023-04-24T00:03:36.824Z,15.38
2023-04-24T00:05:44.557Z,17.90
2023-04-24T00:07:54.600Z,15.95
2023-04-24T00:10:02.110Z,16.88
2023-04-24T00:12:09.428Z,17.55
2023-04-24T00:14:18.552Z,15.77
2023-04-24T00:16:25.761Z,19.15
2023-04-24T00:18:33.695Z,16.42
2023-04-24T00:20:41.749Z,24.27
2023-04-24T00:22:49.375Z,16.50
2023-04-24T00:24:56.557Z,15.93
2023-04-24T00:27:04.557Z,15.98
2023-04-24T00:29:12.254Z,18.67
2023-04-24T00:31:21.173Z,15.52
2023-04-24T00:33:28.561Z,16.05
2023-04-24T00:35:35.950Z,22.48
2023-04-24T00:37:43.081Z,17.48
2023-04-24T00:39:50.574Z,15.48
2023-04-24T00:41:57.775Z,14.32
2023-04-24T00:44:05.298Z,15.43
2023-04-24T00:46:13.142Z,16.23
2023-04-24T00:48:22.421Z,19.23
2023-04-24T00:50:30.272Z,19.30
2023-04-24T00:52:38.164Z,16.67
2023-04-24T00:54:45.343Z,15.52
2023-04-24T00:56:53.398Z,19.42
2023-04-24T00:59:01.963Z,15.75
2023-04-24T01:01:11.052Z,15.38
2023-04-24T01:03:18.846Z,16.42
2023-04-24T01:05:28.328Z,17.42
2023-04-24T01:07:35.862Z,15.45
2023-04-24T01:09:44.521Z,16.23
2023-04-24T01:11:52.428Z,18.55
2023-04-24T01:14:00.993Z,18.17
2023-04-24T01:16:08.495Z,15.85
2023-04-24T01:18:15.715Z,14.25
2023-04-24T01:20:23.152Z,15.32
2023-04-24T01:22:32.432Z,15.20
2023-04-24T01:24:39.758Z,16.25
2023-04-24T01:26:47.567Z,17.27
2023-04-24T01:28:54.751Z,15.05
2023-04-24T01:31:03.386Z,16.20
2023-04-24T01:33:11.005Z,15.63
2023-04-24T01:35:18.596Z,15.00
2023-04-24T01:37:25.882Z,14.60
2023-04-24T01:39:35.582Z,17.77
2023-04-24T01:41:42.651Z,17.50
2023-04-24T01:43:50.049Z,15.02
2023-04-24T01:45:57.387Z,17.75
2023-04-24T01:48:05.818Z,18.67
2023-04-24T01:50:13.934Z,15.57
2023-04-24T01:52:21.794Z,14.82
2023-04-24T01:54:29.067Z,15.18
2023-04-24T01:56:39.326Z,12.80
2023-04-24T01:58:47.220Z,12.82
2023-04-24T02:00:54.820Z,12.98
2023-04-24T02:03:04.002Z,12.82
2023-04-24T02:05:13.065Z,13.40
2023-04-24T02:07:20.299Z,13.73
2023-04-24T02:09:27.587Z,17.80
2023-04-24T02:11:34.866Z,15.35
2023-04-24T02:13:44.358Z,12.98
2023-04-24T02:15:51.532Z,14.98
2023-04-24T02:17:59.010Z,14.25
2023-04-24T02:20:06.695Z,11.95
2023-04-24T02:22:14.456Z,13.23
2023-04-24T02:24:21.840Z,15.00
2023-04-24T02:26:29.437Z,14.55
2023-04-24T02:28:36.577Z,15.77
2023-04-24T02:30:45.595Z,10.18
2023-04-24T02:32:53.171Z,10.50
2023-04-24T02:35:00.780Z,10.95
2023-04-24T02:37:08.066Z,11.32
2023-04-24T02:39:18.514Z,10.05
2023-04-24T02:41:25.594Z,9.88
2023-04-24T02:43:33.235Z,10.35
2023-04-24T02:45:40.715Z,10.50
2023-04-24T02:47:50.147Z,11.27
2023-04-24T02:49:57.493Z,9.52
2023-04-24T02:52:05.034Z,10.48
2023-04-24T02:54:12.984Z,12.98
2023-04-24T02:56:20.369Z,9.73
2023-04-24T02:58:27.864Z,11.30
2023-04-24T03:00:35.499Z,10.05
2023-04-24T03:02:43.042Z,11.35
2023-04-24T03:04:52.477Z,10.45
2023-04-24T03:07:00.987Z,13.40
2023-04-24T03:09:08.476Z,11.48
2023-04-24T03:11:15.815Z,10.00
2023-04-24T03:13:23.300Z,10.95
2023-04-24T03:15:31.280Z,10.35
2023-04-24T03:17:38.964Z,11.27
2023-04-24T03:19:46.719Z,11.57
2023-04-24T03:21:55.874Z,12.07
2023-04-24T03:24:03.173Z,9.45
2023-04-24T03:26:10.792Z,10.68
2023-04-24T03:28:24.391Z,8.57
2023-04-24T03:30:44.100Z,9.68
2023-04-24T03:32:52.282Z,9.40
2023-04-24T03:35:04.762Z,8.88
2023-04-24T03:37:14.298Z,8.77
2023-04-24T03:39:27.321Z,9.57
2023-04-24T03:41:36.397Z,9.73
2023-04-24T03:43:53.726Z,11.02
2023-04-24T03:46:01.803Z,11.32
2023-04-24T03:48:11.668Z,10.63
2023-04-24T03:50:19.002Z,9.63
2023-04-24T03:52:28.482Z,10.70
2023-04-24T03:54:36.075Z,9.70
2023-04-24T03:56:43.459Z,12.43
2023-04-24T03:58:50.795Z,11.10
2023-04-24T04:00:59.000Z,9.65
2023-04-24T04:03:25.158Z,13.32
2023-04-24T04:05:32.713Z,9.07
2023-04-24T04:07:41.637Z,11.95
2023-04-24T04:09:49.382Z,12.45
2023-04-24T04:11:57.233Z,11.93
2023-04-24T04:14:04.566Z,11.02
2023-04-24T04:16:14.805Z,10.68
2023-04-24T04:18:22.211Z,11.13
2023-04-24T04:20:30.345Z,10.75
2023-04-24T04:22:37.796Z,11.93
2023-04-24T04:24:50.304Z,10.90
2023-04-24T04:27:00.249Z,11.73
2023-04-24T04:29:16.789Z,9.70
2023-04-24T04:31:26.953Z,10.85
2023-04-24T04:33:35.680Z,11.05
2023-04-24T04:35:43.420Z,9.80
2023-04-24T04:37:50.853Z,10.98
2023-04-24T04:40:19.949Z,10.98
2023-04-24T04:42:37.832Z,13.50
2023-04-24T04:44:46.930Z,9.85
2023-04-24T04:47:01.210Z,10.95
2023-04-24T04:49:12.945Z,10.18
2023-04-24T04:51:20.490Z,13.10
2023-04-24T04:53:28.382Z,11.57
2023-04-24T04:55:37.581Z,11.45
2023-04-24T04:57:52.578Z,11.82
2023-04-24T05:00:00.286Z,12.88
2023-04-24T05:02:20.606Z,10.60
2023-04-24T05:04:28.592Z,10.05
2023-04-24T05:06:36.305Z,11.48
2023-04-24T05:08:45.331Z,11.23
2023-04-24T05:11:05.262Z,11.95
2023-04-24T05:13:14.189Z,12.23
2023-04-24T05:15:22.041Z,12.00
2023-04-24T05:17:29.734Z,12.30
2023-04-24T05:19:39.990Z,12.10
2023-04-24T05:21:48.485Z,11.65
2023-04-24T05:23:55.673Z,11.13
2023-04-24T05:26:33.988Z,10.73
2023-04-24T05:28:41.421Z,10.57
2023-04-24T05:30:52.956Z,13.32
2023-04-24T05:33:02.504Z,10.18
2023-04-24T05:35:12.541Z,11.65
2023-04-24T05:37:19.776Z,11.55
2023-04-24T05:39:27.424Z,11.23
2023-04-24T05:41:37.415Z,12.15
2023-04-24T05:43:44.958Z,10.80
2023-04-24T05:45:52.186Z,10.52
2023-04-24T05:47:59.547Z,11.48
2023-04-24T05:50:06.909Z,10.88
2023-04-24T05:52:14.605Z,13.07
2023-04-24T05:54:23.123Z,10.93
2023-04-24T05:56:30.562Z,11.98
2023-04-24T05:58:41.625Z,14.77
2023-04-24T06:00:49.985Z,10.07
2023-04-24T06:02:58.287Z,10.15
2023-04-24T06:05:06.711Z,11.07
2023-04-24T06:07:14.558Z,11.50
2023-04-24T06:09:23.787Z,12.82
2023-04-24T06:11:30.924Z,14.27
2023-04-24T06:13:40.242Z,10.73
2023-04-24T06:16:05.909Z,13.40
2023-04-24T06:20:24.220Z,14.10
2023-04-24T06:22:31.866Z,11.82
2023-04-24T06:24:39.854Z,12.70
2023-04-24T06:26:47.350Z,10.93
2023-04-24T06:28:57.548Z,11.35
2023-04-24T06:31:05.598Z,13.07
2023-04-24T06:33:21.097Z,13.75
2023-04-24T06:35:29.085Z,12.52
2023-04-24T06:37:36.722Z,12.88
2023-04-24T06:39:44.308Z,11.50
2023-04-24T06:41:52.213Z,13.82
2023-04-24T06:44:02.612Z,13.10
2023-04-24T06:46:10.344Z,13.18
2023-04-24T06:48:17.449Z,13.63
2023-04-24T06:50:25.080Z,12.25
2023-04-24T06:52:34.871Z,14.23
2023-04-24T06:54:42.363Z,12.82
2023-04-24T06:56:49.901Z,16.20
2023-04-24T06:58:57.287Z,13.68
2023-04-24T07:01:06.110Z,16.13
2023-04-24T07:03:14.028Z,12.20
2023-04-24T07:05:22.889Z,14.95
2023-04-24T07:07:30.426Z,13.45
2023-04-24T07:09:40.991Z,14.15
2023-04-24T07:11:48.784Z,14.60
2023-04-24T07:13:55.959Z,16.10
2023-04-24T07:16:05.303Z,15.38
2023-04-24T07:18:12.955Z,14.60
2023-04-24T07:20:20.377Z,15.80
2023-04-24T07:22:27.741Z,14.43
2023-04-24T07:24:35.771Z,13.52
2023-04-24T07:26:43.556Z,13.85
2023-04-24T07:28:50.992Z,15.60
2023-04-24T07:30:58.178Z,14.65
2023-04-24T07:33:07.272Z,13.90
2023-04-24T07:35:14.999Z,17.77
2023-04-24T07:37:22.226Z,13.75
2023-04-24T07:39:31.278Z,14.07
2023-04-24T07:41:38.567Z,16.77
2023-04-24T07:43:46.175Z,15.43
2023-04-24T07:45:53.654Z,15.35
2023-04-24T07:48:01.160Z,13.13
2023-04-24T07:50:10.743Z,14.63
2023-04-24T07:52:18.127Z,13.73
2023-04-24T07:54:25.264Z,14.15
2023-04-24T07:56:33.296Z,14.45
2023-04-24T07:58:40.851Z,15.57
2023-04-24T08:00:48.501Z,16.05
2023-04-24T08:02:55.888Z,13.98
2023-04-24T08:05:03.314Z,13.82
2023-04-24T08:07:14.862Z,13.38
2023-04-24T08:11:28.975Z,12.35
2023-04-24T08:13:36.450Z,14.00
2023-04-24T08:15:43.912Z,13.65
2023-04-24T08:17:52.021Z,13.00
2023-04-24T08:20:03.345Z,13.70
2023-04-24T08:22:12.646Z,13.10
2023-04-24T08:24:19.981Z,13.77
2023-04-24T08:26:27.747Z,14.07
2023-04-24T08:28:35.166Z,16.15
2023-04-24T08:30:42.706Z,15.70
2023-04-24T08:32:50.388Z,15.40
2023-04-24T08:34:58.458Z,14.80
2023-04-24T08:37:06.563Z,14.60
2023-04-24T08:39:16.241Z,14.52
2023-04-24T08:41:24.857Z,14.27
2023-04-24T08:43:32.295Z,14.52
2023-04-24T08:45:40.517Z,14.73
2023-04-24T08:47:48.158Z,15.25
2023-04-24T08:49:55.742Z,14.00
2023-04-24T08:52:04.250Z,14.80
2023-04-24T08:54:11.591Z,13.85
2023-04-24T08:56:20.966Z,13.63
2023-04-24T08:58:29.889Z,14.10
2023-04-24T09:00:37.892Z,15.80
2023-04-24T09:02:47.504Z,15.55
2023-04-24T09:04:55.426Z,14.77
2023-04-24T09:07:02.935Z,17.33
2023-04-24T09:09:10.301Z,13.25
2023-04-24T09:11:19.535Z,15.10
2023-04-24T09:13:27.382Z,15.68
2023-04-24T09:15:34.766Z,16.52
2023-04-24T09:17:42.773Z,12.65
2023-04-24T09:19:50.051Z,16.13
2023-04-24T09:21:58.239Z,14.60
2023-04-24T09:24:06.666Z,15.60
2023-04-24T09:26:16.158Z,12.25
2023-04-24T09:28:31.336Z,13.93
2023-04-24T09:30:38.759Z,16.92
2023-04-24T09:32:45.952Z,14.95
2023-04-24T09:34:53.634Z,14.95
2023-04-24T09:37:00.969Z,15.25
2023-04-24T09:39:10.199Z,13.70
2023-04-24T09:41:19.173Z,14.50
2023-04-24T09:43:30.591Z,15.00
2023-04-24T09:45:41.539Z,14.10
2023-04-24T09:47:48.959Z,14.30
2023-04-24T09:50:01.766Z,13.50
2023-04-24T09:52:09.936Z,12.65
2023-04-24T09:54:19.726Z,13.75
2023-04-24T09:56:30.846Z,12.30
2023-04-24T09:58:40.902Z,12.55
2023-04-24T10:00:50.025Z,15.25
2023-04-24T10:03:03.431Z,12.90
2023-04-24T10:05:11.453Z,14.73
2023-04-24T10:07:20.426Z,16.13
2023-04-24T10:09:28.651Z,15.05
2023-04-24T10:11:36.001Z,14.07
2023-04-24T10:13:45.348Z,12.80
2023-04-24T10:15:54.254Z,12.65
2023-04-24T10:18:03.541Z,12.55
2023-04-24T10:20:12.239Z,13.32
2023-04-24T10:22:21.863Z,13.27
2023-04-24T10:24:29.391Z,13.48
2023-04-24T10:26:37.400Z,12.85
2023-04-24T10:28:48.779Z,11.98
2023-04-24T10:30:58.811Z,13.07
2023-04-24T10:33:06.511Z,13.27
2023-04-24T10:35:16.114Z,13.65
2023-04-24T10:37:23.670Z,13.00
2023-04-24T10:39:31.037Z,13.77
2023-04-24T10:41:41.204Z,14.23
2023-04-24T10:43:52.984Z,12.20
2023-04-24T10:46:07.436Z,13.55
2023-04-24T10:48:15.708Z,14.02
2023-04-24T10:50:25.485Z,13.88
2023-04-24T10:52:50.577Z,13.13
2023-04-24T10:54:59.911Z,13.82
2023-04-24T10:57:32.649Z,13.65
2023-04-24T10:59:42.186Z,12.00
2023-04-24T11:01:58.379Z,13.20
2023-04-24T11:04:07.151Z,11.70
2023-04-24T11:06:16.988Z,12.52
2023-04-24T11:08:30.423Z,13.77
2023-04-24T11:10:37.694Z,13.90
2023-04-24T11:12:45.286Z,13.85
2023-04-24T11:15:15.147Z,13.77
2023-04-24T11:17:35.343Z,12.57
2023-04-24T11:19:44.256Z,15.40
2023-04-24T11:21:53.944Z,15.00
2023-04-24T11:24:01.280Z,18.52
2023-04-24T11:26:32.377Z,14.23
2023-04-24T11:28:41.476Z,15.43
2023-04-24T11:30:51.549Z,18.83
2023-04-24T11:32:58.934Z,19.48
2023-04-24T11:35:07.602Z,14.82
2023-04-24T11:37:15.449Z,17.40
2023-04-24T11:39:22.837Z,14.18
2023-04-24T11:41:30.734Z,13.60
2023-04-24T11:43:39.159Z,12.57
2023-04-24T11:45:56.140Z,18.08
2023-04-24T11:48:03.948Z,19.05
2023-04-24T11:50:13.285Z,21.25
2023-04-24T11:52:21.652Z,19.08
2023-04-24T11:54:28.875Z,17.70
2023-04-24T11:56:36.318Z,16.30
2023-04-24T11:58:43.853Z,14.27
2023-04-24T12:00:59.843Z,15.27
2023-04-24T12:03:13.717Z,16.48
2023-04-24T12:05:26.619Z,17.27
2023-04-24T12:07:44.769Z,15.88
2023-04-24T12:09:53.555Z,18.27
2023-04-24T12:12:01.299Z,16.58
2023-04-24T12:14:15.805Z,16.08
2023-04-24T12:16:23.293Z,16.30
2023-04-24T12:18:32.315Z,20.40
2023-04-24T12:20:41.396Z,16.55
2023-04-24T12:22:52.539Z,17.70
2023-04-24T12:25:07.532Z,15.25
2023-04-24T12:27:25.676Z,13.23
2023-04-24T12:29:33.363Z,16.38
2023-04-24T12:31:40.549Z,14.15
2023-04-24T12:33:49.741Z,15.35
2023-04-24T12:35:57.531Z,16.15
2023-04-24T12:38:11.926Z,14.68
2023-04-24T12:40:19.827Z,17.00
2023-04-24T12:42:31.609Z,15.93
2023-04-24T12:44:39.201Z,15.25
2023-04-24T12:47:12.313Z,16.27
2023-04-24T12:49:21.368Z,17.00
2023-04-24T12:51:28.801Z,16.80
2023-04-24T12:53:35.935Z,20.02
2023-04-24T12:55:43.325Z,17.90
2023-04-24T12:57:50.617Z,19.70
2023-04-24T12:59:59.787Z,17.60
2023-04-24T13:02:07.073Z,21.42
2023-04-24T13:04:14.704Z,17.98
2023-04-24T13:06:23.696Z,22.17
2023-04-24T13:08:31.069Z,20.58
2023-04-24T13:10:38.354Z,21.17
2023-04-24T13:12:47.453Z,20.23
2023-04-24T13:14:55.129Z,21.67
2023-04-24T13:17:02.825Z,21.00
2023-04-24T13:19:10.314Z,19.50
2023-04-24T13:21:18.049Z,20.50
2023-04-24T13:23:27.485Z,20.95
2023-04-24T13:25:39.383Z,23.58
2023-04-24T13:27:46.762Z,23.02
2023-04-24T13:34:39.848Z,22.13
2023-04-24T13:36:47.290Z,23.27
2023-04-24T13:38:56.668Z,21.15
2023-04-24T13:41:04.012Z,21.52
2023-04-24T13:43:11.752Z,24.98
2023-04-24T13:45:34.716Z,26.30
2023-04-24T13:47:42.946Z,25.60
2023-04-24T13:49:50.085Z,24.10
2023-04-24T13:51:57.932Z,25.92
2023-04-24T13:54:06.861Z,24.20
2023-04-24T13:56:15.833Z,21.02
2023-04-24T13:58:23.166Z,25.58
2023-04-24T14:00:30.572Z,22.38
2023-04-24T14:02:43.261Z,22.25
2023-04-24T14:04:51.848Z,22.05
2023-04-24T14:06:59.722Z,21.55
2023-04-24T14:09:08.965Z,23.35
2023-04-24T14:11:16.328Z,18.70
2023-04-24T14:13:24.290Z,19.38
2023-04-24T14:15:32.139Z,20.90
2023-04-24T14:17:39.698Z,19.67
2023-04-24T14:19:46.807Z,21.35
2023-04-24T14:21:59.224Z,19.90
2023-04-24T14:24:08.444Z,22.67
2023-04-24T14:26:15.933Z,20.67
2023-04-24T14:28:23.266Z,23.15
2023-04-24T14:30:30.903Z,19.73
2023-04-24T14:32:38.205Z,19.40
2023-04-24T14:34:45.633Z,23.38
2023-04-24T14:36:52.814Z,19.55
2023-04-24T14:39:00.099Z,18.42
2023-04-24T14:41:13.980Z,21.95
2023-04-24T14:43:21.725Z,20.75
2023-04-24T14:45:29.126Z,21.73
2023-04-24T14:47:36.661Z,22.58
2023-04-24T14:49:45.631Z,22.10
2023-04-24T14:51:55.836Z,20.20
2023-04-24T14:54:03.630Z,21.27
2023-04-24T14:56:13.068Z,20.02
2023-04-24T14:58:20.195Z,20.90
2023-04-24T15:00:27.788Z,19.42
2023-04-24T15:02:35.075Z,19.80
2023-04-24T15:04:42.970Z,20.05
2023-04-24T15:06:50.300Z,21.63
2023-04-24T15:08:57.899Z,22.83
2023-04-24T15:11:05.341Z,25.40
2023-04-24T15:13:14.532Z,25.10
2023-04-24T15:15:21.762Z,19.58
2023-04-24T15:17:29.476Z,20.98
2023-04-24T15:19:36.876Z,24.00
2023-04-24T15:21:44.723Z,19.40
2023-04-24T15:23:51.908Z,26.85
2023-04-24T15:25:59.701Z,20.65
2023-04-24T15:28:07.036Z,22.35
2023-04-24T15:30:17.297Z,27.48
2023-04-24T15:32:25.062Z,25.90
2023-04-24T15:34:34.156Z,24.35
2023-04-24T15:36:42.068Z,21.40
2023-04-24T15:38:49.647Z,21.50
2023-04-24T15:40:57.032Z,22.70
2023-04-24T15:43:04.266Z,21.67
2023-04-24T15:45:12.730Z,21.10
2023-04-24T15:47:21.780Z,22.42
2023-04-24T15:49:29.479Z,20.45
2023-04-24T15:51:36.528Z,24.10
2023-04-24T15:53:44.171Z,22.80
2023-04-24T15:55:51.486Z,22.95
2023-04-24T15:57:58.995Z,22.45
2023-04-24T16:00:07.982Z,22.40
2023-04-24T16:02:22.888Z,22.55
2023-04-24T16:04:30.300Z,21.02
2023-04-24T16:06:37.916Z,21.58
2023-04-24T16:08:45.435Z,20.98
2023-04-24T16:10:53.727Z,23.00
2023-04-24T16:13:02.146Z,21.77
2023-04-24T16:15:10.209Z,21.13
2023-04-24T16:17:17.555Z,20.52
2023-04-24T16:19:26.378Z,22.02
2023-04-24T16:21:33.913Z,19.33
2023-04-24T16:23:41.197Z,22.10
2023-04-24T16:25:49.046Z,22.02
2023-04-24T16:27:56.483Z,23.52
2023-04-24T16:30:04.379Z,22.90
2023-04-24T16:32:12.035Z,23.10
2023-04-24T16:34:19.672Z,23.85
2023-04-24T16:36:29.713Z,22.17
2023-04-24T16:38:37.102Z,21.83
2023-04-24T16:40:44.691Z,21.45
2023-04-24T16:43:02.174Z,26.20
2023-04-24T16:45:10.444Z,23.70
2023-04-24T16:47:18.627Z,21.02
2023-04-24T16:49:27.506Z,23.08
2023-04-24T16:51:36.572Z,24.00
2023-04-24T16:53:44.376Z,27.50
2023-04-24T16:55:51.643Z,30.63
2023-04-24T16:57:59.400Z,23.83
2023-04-24T17:00:06.921Z,22.40
2023-04-24T17:02:14.457Z,23.90
2023-04-24T17:04:21.566Z,26.42
2023-04-24T17:06:29.353Z,22.02
2023-04-24T17:08:38.176Z,23.27
2023-04-24T17:10:45.715Z,24.67
2023-04-24T17:12:52.687Z,23.08
2023-04-24T17:15:00.382Z,29.25
2023-04-24T17:17:07.613Z,28.55
2023-04-24T17:19:15.257Z,24.52
2023-04-24T17:21:22.388Z,27.17
2023-04-24T17:23:29.830Z,25.98
2023-04-24T17:25:38.748Z,25.70
2023-04-24T17:27:46.190Z,27.20
2023-04-24T17:29:53.550Z,28.33
2023-04-24T17:32:01.095Z,28.67
2023-04-24T17:34:08.856Z,24.75
2023-04-24T17:36:16.452Z,23.73
2023-04-24T17:38:23.939Z,24.00
2023-04-24T17:40:31.483Z,23.83
2023-04-24T17:42:42.356Z,31.83
2023-04-24T17:44:50.191Z,28.75
2023-04-24T17:46:57.484Z,24.25
2023-04-24T17:49:05.071Z,32.00
2023-04-24T17:51:12.610Z,24.70
2023-04-24T17:53:21.652Z,26.60
2023-04-24T17:55:29.074Z,20.77
2023-04-24T17:57:36.569Z,27.00
2023-04-24T17:59:45.479Z,26.73
2023-04-24T18:01:54.066Z,27.90
2023-04-24T18:04:01.645Z,32.85
2023-04-24T18:06:11.133Z,20.85
2023-04-24T18:08:18.257Z,20.73
2023-04-24T18:10:25.699Z,21.85
2023-04-24T18:12:32.988Z,24.42
2023-04-24T18:14:40.566Z,28.90
2023-04-24T18:16:49.383Z,28.48
2023-04-24T18:18:56.775Z,25.40
2023-04-24T18:21:03.913Z,30.02
2023-04-24T18:23:11.288Z,27.52
2023-04-24T18:25:18.930Z,27.30
2023-04-24T18:27:30.311Z,27.35
2023-04-24T18:29:37.439Z,22.70
2023-04-24T18:31:45.032Z,21.10
2023-04-24T18:33:55.132Z,22.27
2023-04-24T18:36:04.566Z,23.70
2023-04-24T18:38:12.009Z,26.10
2023-04-24T18:40:20.314Z,25.02
2023-04-24T18:42:27.605Z,25.13
2023-04-24T18:44:35.188Z,25.83
2023-04-24T18:46:42.438Z,26.77
2023-04-24T18:48:50.243Z,27.48
2023-04-24T18:50:59.451Z,30.70
2023-04-24T18:53:07.099Z,26.05
2023-04-24T18:55:14.808Z,27.70
2023-04-24T18:57:22.280Z,28.70
2023-04-24T18:59:30.128Z,27.05
2023-04-24T19:01:37.320Z,26.38
2023-04-24T19:03:44.941Z,29.45
2023-04-24T19:05:52.028Z,29.27
2023-04-24T19:08:01.359Z,22.20
2023-04-24T19:10:09.047Z,21.52
2023-04-24T19:12:16.450Z,21.60
2023-04-24T19:14:23.973Z,23.20
2023-04-24T19:16:31.343Z,23.65
2023-04-24T19:18:39.058Z,22.77
2023-04-24T19:20:46.902Z,24.88
2023-04-24T19:22:54.232Z,22.23
2023-04-24T19:25:04.446Z,24.40
2023-04-24T19:27:12.589Z,24.95
2023-04-24T19:29:20.078Z,22.92
2023-04-24T19:31:27.404Z,33.47
2023-04-24T19:33:35.062Z,33.40
2023-04-24T19:35:42.393Z,33.55
2023-04-24T19:37:49.989Z,28.25
2023-04-24T19:39:57.120Z,22.52
2023-04-24T19:42:07.649Z,24.40
2023-04-24T19:44:15.773Z,23.73
2023-04-24T19:46:23.262Z,25.05
2023-04-24T19:48:32.194Z,27.02
2023-04-24T19:50:39.839Z,24.23
2023-04-24T19:52:46.918Z,24.45
2023-04-24T19:54:54.476Z,25.73
2023-04-24T19:57:01.644Z,29.70
2023-04-24T19:59:10.766Z,31.08
2023-04-24T20:01:17.920Z,32.95
2023-04-24T20:03:33.078Z,31.33
2023-04-24T20:05:41.684Z,32.40
2023-04-24T20:07:48.964Z,33.58
2023-04-24T20:09:56.099Z,25.60
2023-04-24T20:12:03.907Z,27.15
2023-04-24T20:14:12.761Z,30.88
2023-04-24T20:16:20.292Z,34.28
2023-04-24T20:18:27.380Z,31.77
2023-04-24T20:20:35.746Z,31.83
2023-04-24T20:22:42.978Z,34.47
2023-04-24T20:24:51.537Z,37.13
2023-04-24T20:26:58.671Z,35.55
2023-04-24T20:29:06.258Z,39.38
2023-04-24T20:31:15.651Z,34.33
2023-04-24T20:33:23.496Z,30.42
2023-04-24T20:35:31.081Z,29.90
2023-04-24T20:37:38.834Z,24.20
2023-04-24T20:39:47.323Z,32.40
2023-04-24T20:41:54.672Z,31.52
2023-04-24T20:44:02.276Z,29.08
2023-04-24T20:46:09.901Z,27.95
2023-04-24T20:48:19.289Z,29.65
2023-04-24T20:50:26.609Z,28.83
2023-04-24T20:52:34.216Z,24.58
2023-04-24T20:54:42.843Z,31.85
2023-04-24T20:56:50.677Z,25.25
2023-04-24T20:58:57.960Z,22.35
2023-04-24T21:01:05.421Z,21.55
2023-04-24T21:03:12.660Z,24.35
2023-04-24T21:05:22.013Z,26.95
2023-04-24T21:07:29.154Z,31.35
2023-04-24T21:09:37.814Z,36.97
2023-04-24T21:11:45.248Z,26.13
2023-04-24T21:13:52.788Z,22.00
2023-04-24T21:16:00.025Z,27.40
2023-04-24T21:18:07.974Z,30.95
2023-04-24T21:20:15.574Z,24.75
2023-04-24T21:22:24.690Z,24.92
2023-04-24T21:24:31.772Z,33.10
2023-04-24T21:26:39.460Z,36.60
2023-04-24T21:28:47.107Z,39.45
2023-04-24T21:30:54.488Z,39.20
2023-04-24T21:33:02.080Z,31.70
2023-04-24T21:35:10.134Z,36.13
2023-04-24T21:37:18.089Z,28.90
2023-04-24T21:39:28.439Z,27.52
2023-04-24T21:41:35.827Z,31.13
2023-04-24T21:43:45.757Z,29.50
2023-04-24T21:45:54.215Z,26.80
2023-04-24T21:48:02.856Z,30.25
2023-04-24T21:50:11.576Z,33.15
2023-04-24T21:52:18.746Z,37.35
2023-04-24T21:54:27.976Z,34.15
2023-04-24T21:56:35.414Z,38.78
2023-04-24T21:58:42.904Z,35.35
2023-04-24T22:00:50.141Z,33.40
2023-04-24T22:02:57.784Z,34.92
2023-04-24T22:05:06.358Z,33.08
2023-04-24T22:07:13.935Z,35.35
2023-04-24T22:09:21.065Z,36.35
2023-04-24T22:11:30.603Z,40.47
2023-04-24T22:13:37.885Z,43.72
2023-04-24T22:15:45.516Z,44.03
2023-04-24T22:17:53.723Z,46.75
2023-04-24T22:20:01.122Z,43.25
2023-04-24T22:22:08.406Z,44.65
2023-04-24T22:24:16.009Z,42.55
2023-04-24T22:26:23.691Z,40.38
2023-04-24T22:28:33.436Z,35.75
2023-04-24T22:30:40.672Z,38.10
2023-04-24T22:32:48.456Z,42.40
2023-04-24T22:34:56.204Z,43.70
2023-04-24T22:37:04.260Z,49.60
2023-04-24T22:39:11.593Z,40.30
2023-04-24T22:41:19.294Z,41.08
2023-04-24T22:43:26.721Z,38.20
2023-04-24T22:45:36.071Z,38.00
2023-04-24T22:47:43.208Z,37.95
2023-04-24T22:49:50.979Z,32.88
2023-04-24T22:51:58.687Z,30.73
2023-04-24T22:54:07.499Z,35.47
2023-04-24T22:56:14.724Z,37.38
2023-04-24T22:58:22.320Z,34.60
2023-04-24T23:00:29.682Z,37.10
2023-04-24T23:02:39.395Z,37.45
2023-04-24T23:04:47.087Z,41.28
2023-04-24T23:06:54.378Z,41.47
2023-04-24T23:09:01.707Z,37.03
2023-04-24T23:11:08.895Z,35.95
2023-04-24T23:13:16.479Z,34.45
2023-04-24T23:15:23.869Z,35.55
2023-04-24T23:17:31.548Z,36.38
2023-04-24T23:19:40.430Z,34.35
2023-04-24T23:21:47.575Z,34.88
2023-04-24T23:23:54.999Z,36.63
2023-04-24T23:26:02.541Z,42.33
2023-04-24T23:28:09.827Z,40.05
2023-04-24T23:30:17.578Z,44.60
2023-04-24T23:32:24.862Z,47.58
2023-04-24T23:34:35.003Z,50.90
2023-04-24T23:36:43.925Z,49.95
2023-04-24T23:38:51.268Z,47.33
2023-04-24T23:40:58.600Z,50.05
2023-04-24T23:43:07.859Z,47.03
2023-04-24T23:45:15.942Z,47.45
2023-04-24T23:47:23.513Z,40.28
2023-04-24T23:49:30.758Z,48.60
2023-04-24T23:51:38.451Z,50.05
2023-04-24T23:53:47.737Z,45.55
2023-04-24T23:55:55.492Z,45.95
2023-04-24T23:58:02.603Z,44.33
